• Join FlightAware (Why Join?)
  • Login
  • US Flag 
08:43AM EDT


 

Airport Tracker/Info


-or-


 

Live Flight TrackerFlight Track Log ✈ GGN7283 ✈ 06-Aug-2013 ✈ KALB - CYYZ

Flight Track Log - Related Links

Times and Time Zones

All times are in EDT time to prevent confusion due to time zone crossing. See the GGN7283 flight status page for this flight to view local times or setup timezone preferences in your user account.

Time Position Orientation Groundspeed Altitude Reporting Facility
EDT Latitude Longitude Course Direction KTS MPH feet Rate Location/Type
06:28PM 42.7278 -73.8108 224° Southwest 145 167 1,100  Level Boston Center
06:29PM 42.7003 -73.8469 224° Southwest 181 208 2,500 1,440 Climbing Boston Center
06:31PM 42.7236 -73.9633 285° West 197 227 5,300 1,500 Climbing Boston Center
06:32PM 42.7478 -74.0206 300° West 185 213 6,900 1,500 Climbing Boston Center
06:33PM 42.7783 -74.0750 307° West 185 213 8,300 1,620 Climbing Boston Center
06:34PM 42.7772 -74.1458 269° West 167 192 10,100 1,620 Climbing Boston Center
06:35PM 42.7803 -74.2222 273° West 195 224 11,600 1,260 Climbing Boston Center
06:36PM 42.7856 -74.2931 276° West 195 224 12,700 1,260 Climbing Boston Center
06:37PM 42.7903 -74.3725 275° West 206 237 14,200 1,380 Climbing Boston Center
06:38PM 42.7933 -74.4489 273° West 206 237 15,500 1,200 Climbing Boston Center
06:39PM 42.7978 -74.5425 274° West 206 237 16,900 1,080 Climbing Boston Center
06:40PM 42.8028 -74.6133 276° West 212 244 17,900 1,020 Climbing Boston Center
06:41PM 42.8050 -74.7042 272° West 218 251 19,000 960 Climbing Boston Center
06:42PM 42.8078 -74.7806 273° West 223 257 19,900 420 Climbing Boston Center
06:43PM 42.8122 -74.8658 274° West 223 257 19,900  Level Boston Center
06:44PM 42.8164 -74.9594 274° West 235 270 20,000  Climbing Boston Center
06:45PM 42.8228 -75.0531 275° West 235 270 20,000 -60 Level Boston Center
06:46PM 42.8289 -75.1467 275° West 242 278 19,900 -60 Descending Boston Center
06:47PM 42.8328 -75.2375 273° West 242 278 19,900  Level Boston Center
06:48PM 42.8347 -75.3311 272° West 247 284 19,900  Level Boston Center
06:49PM 42.8386 -75.4247 273° West 252 290 19,900  Level Boston Center
06:50PM 42.8403 -75.5183 271° West 252 290 19,900  Level Boston Center
06:51PM 42.8439 -75.6147 273° West 252 290 19,900  Level Boston Center
06:52PM 42.8497 -75.7056 275° West 252 290 19,900  Level Boston Center
06:53PM 42.8531 -75.7994 273° West 252 290 19,900  Level Boston Center
06:54PM 42.8586 -75.8958 275° West 252 290 19,900  Level Boston Center
06:55PM 42.8619 -75.9869 273° West 252 290 20,000  Climbing Boston Center
06:57PM 42.8644 -76.1383 271° West 249 287 19,900 -60 Descending Cleveland Center
06:58PM 42.8667 -76.2167 272° West 250 288 19,900  Level Toronto Center
06:59PM 42.8667 -76.3167 270° West 250 288 19,900  Level Toronto Center
07:00PM 42.8667 -76.4000 270° West 250 288 19,900  Level Toronto Center
07:01PM 42.8667 -76.5000 270° West 240 276 19,900  Level Toronto Center
07:02PM 42.8794 -76.6050 279° West 255 293 19,900  Level Cleveland Center
07:03PM 42.8828 -76.6983 273° West 250 288 19,900  Level Cleveland Center
07:04PM 42.8856 -76.7889 272° West 250 288 19,900  Level Cleveland Center
07:05PM 42.8886 -76.8822 273° West 250 288 19,900  Level Cleveland Center
07:06PM 42.8917 -76.9725 273° West 250 288 19,900  Level Cleveland Center
07:07PM 42.8944 -77.0661 272° West 250 288 19,900  Level Cleveland Center
07:08PM 42.8972 -77.1567 272° West 250 288 19,900  Level Cleveland Center
07:09PM 42.9000 -77.2500 272° West 250 288 19,900  Level Cleveland Center
07:10PM 42.9025 -77.3433 272° West 250 288 19,900 -300 Level Cleveland Center
07:11PM 42.9136 -77.4392 279° West 250 288 19,400 -780 Descending Cleveland Center
07:12PM 42.9369 -77.5344 289° West 256 295 18,400 -900 Descending Cleveland Center
07:13PM 42.9606 -77.6439 286° West 268 308 17,600 -900 Descending Cleveland Center
07:14PM 42.9797 -77.7425 285° West 273 314 16,700 -960 Descending Cleveland Center
07:15PM 43.0008 -77.8436 286° West 278 320 15,700 -1,020 Descending Cleveland Center
07:16PM 43.0219 -77.9422 286° West 278 320 14,700 -840 Descending Cleveland Center
07:17PM 43.0431 -78.0436 286° West 278 320 14,100 -360 Descending Cleveland Center
07:18PM 43.0597 -78.1394 283° West 278 320 14,000 -60 Descending Cleveland Center
07:19PM 43.0783 -78.2297 286° West 272 313 14,000  Level Cleveland Center
07:20PM 43.0967 -78.3200 286° West 261 300 14,000  Level Cleveland Center
07:21PM 43.1172 -78.4131 287° West 256 295 14,000  Level Cleveland Center
07:22PM 43.1356 -78.5064 285° West 256 295 14,000  Level Cleveland Center
07:23PM 43.1519 -78.6028 283° West 261 300 14,000 -120 Level Cleveland Center
07:25PM 43.1833 -78.7667 285° West 250 288 13,700 -480 Descending Toronto Center
07:26PM 43.2000 -78.8500 285° West 260 299 12,700 -900 Descending Toronto Center
07:27PM 43.2167 -78.9500 283° West 260 299 11,900 -1,020 Descending Toronto Center
07:28PM 43.2333 -79.0667 281° West 270 311 10,700 -960 Descending Toronto Center
07:29PM 43.2667 -79.1500 299° West 270 311 10,000 -840 Descending Toronto Center
07:30PM 43.2833 -79.2500 283° West 270 311 9,100 -780 Descending Toronto Center
07:31PM 43.3000 -79.3500 283° West 260 299 8,500 -540 Descending Toronto Center
07:32PM 43.3667 -79.3833 340° North 270 311 8,100 -300 Descending Toronto Center
07:33PM 43.4500 -79.4000 352° North 270 311 8,000 -60 Descending Toronto Center
07:34PM 43.5167 -79.4333 340° North 260 299 8,000  Level Toronto Center
07:35PM 43.5667 -79.5000 316° Northwest 260 299 8,000 -900 Level Toronto Center
07:36PM 43.5500 -79.5833 255° West 240 276 6,300 -1,800 Descending Toronto Center
07:37PM 43.5167 -79.6333 227° Southwest 220 253 4,500 -1,620 Descending Toronto Center
07:38PM 43.5000 -79.7000 251° West 220 253 3,100 -780 Descending Toronto Center
07:39PM 43.5667 -79.7000 360° North 210 242 3,000 -540 Descending Toronto Center
07:40PM 43.6000 -79.6833 20° North 190 219 2,100 -1,020 Descending Toronto Center
07:41PM 43.6333 -79.6167 55° Northeast 160 184 1,000 -840 Descending Toronto Center
07:42PM 43.6500 -79.5833 55° Northeast 120 138 500 -540 Descending Toronto Center